createdAt,value
2018-07-08T00:00:30.361Z,14.00
2018-07-08T00:02:57.580Z,14.00
2018-07-08T00:05:24.451Z,14.00
2018-07-08T00:07:51.393Z,13.90
2018-07-08T00:10:18.275Z,13.90
2018-07-08T00:12:45.190Z,13.90
2018-07-08T00:15:12.067Z,13.80
2018-07-08T00:17:38.991Z,13.80
2018-07-08T00:20:06.006Z,13.70
2018-07-08T00:22:32.879Z,13.70
2018-07-08T00:24:59.963Z,13.50
2018-07-08T00:27:26.837Z,13.50
2018-07-08T00:29:53.731Z,13.50
2018-07-08T00:32:20.632Z,13.50
2018-07-08T00:34:47.531Z,13.40
2018-07-08T00:37:14.404Z,13.40
2018-07-08T00:39:41.639Z,13.30
2018-07-08T00:42:08.500Z,13.20
2018-07-08T00:44:35.395Z,13.30
2018-07-08T00:47:02.263Z,13.20
2018-07-08T00:49:29.193Z,13.20
2018-07-08T00:51:56.067Z,13.20
2018-07-08T00:54:22.963Z,13.20
2018-07-08T00:56:49.840Z,13.20
2018-07-08T01:01:43.938Z,13.10
2018-07-08T01:04:11.598Z,13.10
2018-07-08T01:06:38.536Z,13.00
2018-07-08T01:09:05.440Z,13.00
2018-07-08T01:11:32.322Z,12.90
2018-07-08T01:13:59.228Z,12.90
2018-07-08T01:16:26.108Z,12.80
2018-07-08T01:18:53.251Z,12.80
2018-07-08T01:21:20.125Z,12.80
2018-07-08T01:23:47.027Z,12.70
2018-07-08T01:26:14.052Z,12.70
2018-07-08T01:28:41.636Z,12.60
2018-07-08T01:31:09.583Z,12.60
2018-07-08T01:33:36.652Z,12.60
2018-07-08T01:36:03.538Z,12.60
2018-07-08T01:38:30.419Z,12.50
2018-07-08T01:40:57.591Z,12.40
2018-07-08T01:43:24.872Z,12.30
2018-07-08T01:45:51.752Z,12.30
2018-07-08T01:48:18.628Z,12.30
2018-07-08T01:50:45.528Z,12.20
2018-07-08T01:53:12.747Z,12.20
2018-07-08T01:55:39.628Z,12.20
2018-07-08T01:58:06.535Z,12.10
2018-07-08T02:00:33.423Z,12.20
2018-07-08T02:03:00.328Z,12.10
2018-07-08T02:05:27.203Z,12.10
2018-07-08T02:07:54.129Z,12.10
2018-07-08T02:10:21.011Z,12.00
2018-07-08T02:12:47.888Z,11.90
2018-07-08T02:15:14.791Z,11.80
2018-07-08T02:17:42.073Z,11.80
2018-07-08T02:20:09.004Z,11.80
2018-07-08T02:22:35.883Z,11.70
2018-07-08T02:25:02.796Z,11.70
2018-07-08T02:27:29.685Z,11.60
2018-07-08T02:29:56.608Z,11.60
2018-07-08T02:32:23.508Z,11.60
2018-07-08T02:34:50.424Z,11.70
2018-07-08T02:37:17.303Z,11.70
2018-07-08T02:39:44.263Z,11.60
2018-07-08T02:42:11.155Z,11.70
2018-07-08T02:44:38.080Z,11.70
2018-07-08T02:47:04.952Z,11.70
2018-07-08T02:49:31.864Z,11.70
2018-07-08T02:51:58.747Z,11.70
2018-07-08T02:54:25.652Z,11.80
2018-07-08T02:56:52.808Z,11.80
2018-07-08T02:59:19.988Z,11.80
2018-07-08T03:01:46.927Z,11.80
2018-07-08T03:04:13.787Z,11.70
2018-07-08T03:06:40.666Z,11.70
2018-07-08T03:09:08.563Z,11.80
2018-07-08T03:11:35.440Z,11.90
2018-07-08T03:14:02.342Z,11.90
2018-07-08T03:16:29.221Z,11.90
2018-07-08T03:18:56.255Z,12.00
2018-07-08T03:21:23.125Z,12.00
2018-07-08T03:23:50.063Z,12.10
2018-07-08T03:26:16.959Z,12.20
2018-07-08T03:28:43.953Z,12.30
2018-07-08T03:31:10.856Z,12.40
2018-07-08T03:33:37.731Z,12.50
2018-07-08T03:36:04.643Z,12.60
2018-07-08T03:38:31.520Z,12.60
2018-07-08T03:40:58.426Z,12.60
2018-07-08T03:43:25.308Z,12.70
2018-07-08T03:45:52.426Z,12.70
2018-07-08T03:48:19.295Z,12.70
2018-07-08T03:50:46.172Z,12.80
2018-07-08T03:53:13.099Z,12.80
2018-07-08T03:55:39.972Z,12.90
2018-07-08T03:58:06.855Z,12.90
2018-07-08T04:00:33.727Z,12.90
2018-07-08T04:03:00.631Z,13.00
2018-07-08T04:05:27.528Z,13.10
2018-07-08T04:07:54.423Z,13.10
2018-07-08T04:10:21.588Z,13.20
2018-07-08T04:12:48.819Z,13.20
2018-07-08T04:15:15.811Z,13.30
2018-07-08T04:17:42.703Z,13.20
2018-07-08T04:20:09.859Z,13.20
2018-07-08T04:22:36.757Z,13.20
2018-07-08T04:25:03.636Z,13.30
2018-07-08T04:27:30.527Z,13.30
2018-07-08T04:29:57.439Z,13.30
2018-07-08T04:32:24.336Z,13.30
2018-07-08T04:34:51.216Z,13.30
2018-07-08T04:37:18.115Z,13.30
2018-07-08T04:39:45.331Z,13.30
2018-07-08T04:42:12.231Z,13.30
2018-07-08T04:44:39.102Z,13.30
2018-07-08T04:47:05.987Z,13.40
2018-07-08T04:49:32.879Z,13.50
2018-07-08T04:51:59.748Z,13.60
2018-07-08T04:54:26.648Z,13.70
2018-07-08T04:56:53.519Z,13.80
2018-07-08T04:59:20.419Z,13.80
2018-07-08T05:01:47.295Z,13.90
2018-07-08T05:06:41.344Z,14.00
2018-07-08T05:09:08.237Z,14.00
2018-07-08T05:14:02.004Z,14.20
2018-07-08T05:16:28.871Z,14.40
2018-07-08T05:18:55.762Z,14.50
2018-07-08T05:21:22.627Z,14.60
2018-07-08T05:23:49.519Z,14.60
2018-07-08T05:26:16.683Z,14.60
2018-07-08T05:28:43.579Z,14.70
2018-07-08T05:31:10.471Z,14.90
2018-07-08T05:33:37.375Z,14.90
2018-07-08T05:38:31.217Z,14.90
2018-07-08T05:40:58.076Z,14.90
2018-07-08T05:43:25.027Z,14.80
2018-07-08T05:45:51.903Z,14.90
2018-07-08T05:48:19.107Z,15.10
2018-07-08T05:50:45.987Z,15.10
2018-07-08T05:53:13.667Z,15.10
2018-07-08T05:55:40.560Z,15.00
2018-07-08T05:58:07.608Z,15.00
2018-07-08T06:00:34.516Z,15.20
2018-07-08T06:03:01.712Z,15.30
2018-07-08T06:05:28.617Z,15.40
2018-07-08T06:07:55.496Z,15.50
2018-07-08T06:10:22.392Z,15.70
2018-07-08T06:12:49.263Z,16.00
2018-07-08T06:15:16.208Z,16.30
2018-07-08T06:17:43.067Z,16.50
2018-07-08T06:20:11.085Z,16.70
2018-07-08T06:22:38.283Z,16.90
2018-07-08T06:25:05.451Z,17.20
2018-07-08T06:27:32.327Z,17.40
2018-07-08T06:29:59.249Z,17.70
2018-07-08T06:32:26.141Z,17.90
2018-07-08T06:34:53.048Z,18.30
2018-07-08T06:37:19.920Z,18.60
2018-07-08T06:39:46.816Z,18.90
2018-07-08T06:42:13.972Z,19.30
2018-07-08T06:44:40.871Z,19.60
2018-07-08T06:49:34.660Z,20.50
2018-07-08T06:52:01.567Z,21.10
2018-07-08T06:54:28.780Z,21.20
2018-07-08T06:56:55.648Z,21.90
2018-07-08T06:59:22.552Z,22.40
2018-07-08T07:01:49.427Z,22.70
2018-07-08T07:04:16.815Z,23.10
2018-07-08T07:06:43.733Z,22.90
2018-07-08T07:09:11.099Z,22.20
2018-07-08T07:11:38.336Z,22.60
2018-07-08T07:14:05.235Z,22.30
2018-07-08T07:16:32.113Z,22.30
2018-07-08T07:18:59.016Z,22.30
2018-07-08T07:21:25.888Z,22.50
2018-07-08T07:23:52.799Z,23.10
2018-07-08T07:26:20.019Z,23.60
2018-07-08T07:28:46.919Z,23.20
2018-07-08T07:31:13.835Z,22.50
2018-07-08T07:33:40.711Z,22.10
2018-07-08T07:36:07.617Z,22.10
2018-07-08T07:38:34.492Z,22.50
2018-07-08T07:41:01.386Z,23.00
2018-07-08T07:43:28.261Z,22.50
2018-07-08T07:45:55.160Z,22.30
2018-07-08T07:48:22.040Z,22.50
2018-07-08T07:50:48.932Z,22.80
2018-07-08T07:53:15.807Z,22.60
2018-07-08T07:55:42.706Z,23.00
2018-07-08T07:58:09.579Z,23.30
2018-07-08T08:00:36.475Z,23.50
2018-07-08T08:03:03.367Z,23.50
2018-07-08T08:05:30.275Z,23.40
2018-07-08T08:07:57.463Z,23.40
2018-07-08T08:10:24.471Z,23.90
2018-07-08T08:12:51.347Z,24.30
2018-07-08T08:15:18.503Z,24.80
2018-07-08T08:17:45.547Z,25.30
2018-07-08T08:20:12.444Z,25.00
2018-07-08T08:22:40.008Z,25.10
2018-07-08T08:25:07.372Z,25.60
2018-07-08T08:27:34.424Z,25.90
2018-07-08T08:30:01.468Z,26.10
2018-07-08T08:32:28.579Z,26.40
2018-07-08T08:34:59.842Z,26.20
2018-07-08T08:37:58.142Z,26.20
2018-07-08T08:40:26.486Z,26.30
2018-07-08T08:42:54.055Z,26.40
2018-07-08T08:45:22.112Z,26.20
2018-07-08T08:47:49.019Z,26.10
2018-07-08T08:50:16.168Z,26.50
2018-07-08T08:52:43.084Z,26.80
2018-07-08T08:55:10.815Z,27.00
2018-07-08T08:57:38.201Z,27.40
2018-07-08T09:00:10.028Z,27.40
2018-07-08T09:02:37.088Z,27.10
2018-07-08T09:05:03.960Z,26.80
2018-07-08T09:07:30.837Z,25.90
2018-07-08T09:09:57.737Z,25.80
2018-07-08T09:12:24.672Z,26.00
2018-07-08T09:14:51.551Z,26.30
2018-07-08T09:19:45.640Z,25.90
2018-07-08T09:22:12.515Z,26.10
2018-07-08T09:24:39.421Z,26.30
2018-07-08T09:27:06.552Z,26.40
2018-07-08T09:29:33.472Z,27.00
2018-07-08T09:32:00.352Z,27.80
2018-07-08T09:34:27.240Z,28.70
2018-07-08T09:39:21.125Z,28.10
2018-07-08T09:41:48.011Z,28.00
2018-07-08T09:44:15.796Z,28.50
2018-07-08T09:46:43.735Z,28.80
2018-07-08T09:49:10.909Z,28.90
2018-07-08T09:51:37.790Z,29.00
2018-07-08T09:54:04.800Z,28.70
2018-07-08T09:56:31.711Z,28.40
2018-07-08T09:58:58.899Z,28.40
2018-07-08T10:01:26.024Z,29.00
2018-07-08T10:03:52.943Z,30.00
2018-07-08T10:06:19.837Z,30.50
2018-07-08T10:08:46.834Z,30.90
2018-07-08T10:11:13.648Z,31.50
2018-07-08T10:13:40.578Z,31.90
2018-07-08T10:16:07.903Z,33.00
2018-07-08T10:18:34.795Z,33.10
2018-07-08T10:21:01.740Z,32.40
2018-07-08T10:23:28.611Z,32.20
2018-07-08T10:25:55.499Z,32.10
2018-07-08T10:28:23.354Z,33.20
2018-07-08T10:30:50.627Z,34.80
2018-07-08T10:33:17.520Z,35.40
2018-07-08T10:35:47.680Z,35.80
2018-07-08T10:38:14.568Z,36.90
2018-07-08T10:40:41.481Z,37.70
2018-07-08T10:43:08.356Z,37.40
2018-07-08T10:45:35.256Z,37.50
2018-07-08T10:48:02.152Z,36.70
2018-07-08T10:50:29.071Z,37.00
2018-07-08T10:52:55.935Z,37.00
2018-07-08T10:55:22.877Z,36.20
2018-07-08T10:57:49.743Z,35.90
2018-07-08T11:00:16.675Z,36.80
2018-07-08T11:02:43.552Z,37.70
2018-07-08T11:05:10.455Z,38.80
2018-07-08T11:07:37.559Z,39.20
2018-07-08T11:10:04.455Z,38.70
2018-07-08T11:12:31.672Z,38.60
2018-07-08T11:14:58.567Z,39.10
2018-07-08T11:17:25.435Z,39.40
2018-07-08T11:19:52.307Z,36.90
2018-07-08T11:22:19.210Z,33.80
2018-07-08T11:24:46.088Z,33.40
2018-07-08T11:27:12.983Z,34.20
2018-07-08T11:29:39.871Z,34.50
2018-07-08T11:32:07.035Z,33.70
2018-07-08T11:34:33.907Z,33.40
2018-07-08T11:37:00.815Z,33.50
2018-07-08T11:39:27.688Z,32.80
2018-07-08T11:41:54.587Z,31.90
2018-07-08T11:44:21.460Z,30.50
2018-07-08T11:46:48.351Z,29.50
2018-07-08T11:49:15.240Z,29.10
2018-07-08T11:51:42.135Z,30.70
2018-07-08T11:54:09.023Z,32.40
2018-07-08T11:56:35.940Z,32.50
2018-07-08T11:59:02.811Z,31.80
2018-07-08T12:01:29.711Z,31.00
2018-07-08T12:03:56.596Z,30.10
2018-07-08T12:06:23.512Z,31.20
2018-07-08T12:08:50.426Z,33.20
2018-07-08T12:11:17.324Z,35.00
2018-07-08T12:13:44.191Z,36.40
2018-07-08T12:16:11.084Z,36.30
2018-07-08T12:21:04.943Z,36.80
2018-07-08T12:23:31.753Z,36.50
2018-07-08T12:25:59.000Z,35.50
2018-07-08T12:28:25.868Z,35.60
2018-07-08T12:30:52.788Z,34.80
2018-07-08T12:33:19.959Z,34.70
2018-07-08T12:35:46.852Z,36.00
2018-07-08T12:38:13.724Z,37.30
2018-07-08T12:40:40.614Z,37.30
2018-07-08T12:43:07.483Z,37.80
2018-07-08T12:45:34.384Z,38.80
2018-07-08T12:48:01.248Z,39.40
2018-07-08T12:50:28.128Z,39.70
2018-07-08T12:52:55.127Z,40.40
2018-07-08T12:55:22.004Z,39.00
2018-07-08T12:57:48.894Z,37.40
2018-07-08T13:00:15.767Z,37.50
2018-07-08T13:02:42.669Z,37.80
2018-07-08T13:05:09.549Z,36.70
2018-07-08T13:07:36.463Z,34.90
2018-07-08T13:10:03.331Z,33.50
2018-07-08T13:12:30.242Z,33.00
2018-07-08T13:14:57.113Z,33.20
2018-07-08T13:17:24.009Z,34.70
2018-07-08T13:22:17.807Z,37.00
2018-07-08T13:24:44.980Z,36.90
2018-07-08T13:27:12.547Z,37.60
2018-07-08T13:29:39.427Z,38.10
2018-07-08T13:32:06.329Z,38.00
2018-07-08T13:34:33.242Z,38.40
2018-07-08T13:37:00.107Z,38.70
2018-07-08T13:39:26.999Z,38.30
2018-07-08T13:41:53.881Z,36.70
2018-07-08T13:44:20.776Z,35.00
2018-07-08T13:46:47.651Z,33.40
2018-07-08T13:49:14.847Z,32.10
2018-07-08T13:51:41.715Z,31.90
2018-07-08T13:54:08.607Z,32.00
2018-07-08T13:59:02.396Z,33.30
2018-07-08T14:01:29.268Z,32.40
2018-07-08T14:03:56.158Z,31.70
2018-07-08T14:06:23.164Z,31.00
2018-07-08T14:08:50.354Z,30.40
2018-07-08T14:11:17.223Z,29.90
2018-07-08T14:13:44.123Z,29.70
2018-07-08T14:16:11.000Z,29.40
2018-07-08T14:18:37.887Z,28.90
2018-07-08T14:21:04.820Z,29.20
2018-07-08T14:23:31.705Z,30.80
2018-07-08T14:25:58.584Z,32.20
2018-07-08T14:28:26.531Z,31.90
2018-07-08T14:30:53.436Z,30.90
2018-07-08T14:33:20.328Z,31.10
2018-07-08T14:35:47.215Z,30.70
2018-07-08T14:38:14.111Z,30.20
2018-07-08T14:40:41.052Z,29.90
2018-07-08T14:43:07.934Z,30.70
2018-07-08T14:45:34.818Z,31.50
2018-07-08T14:48:01.959Z,31.10
2018-07-08T14:50:28.859Z,31.40
2018-07-08T14:52:55.736Z,31.50
2018-07-08T14:55:22.636Z,32.60
2018-07-08T14:57:49.515Z,33.70
2018-07-08T15:00:16.419Z,34.50
2018-07-08T15:02:43.295Z,33.60
2018-07-08T15:05:10.192Z,32.70
2018-07-08T15:07:37.059Z,32.80
2018-07-08T15:10:03.958Z,33.50
2018-07-08T15:12:30.850Z,33.90
2018-07-08T15:14:57.732Z,33.20
2018-07-08T15:17:24.632Z,31.90
2018-07-08T15:19:51.524Z,31.60
2018-07-08T15:22:18.488Z,32.30
2018-07-08T15:24:45.359Z,33.00
2018-07-08T15:27:12.266Z,33.50
2018-07-08T15:29:39.154Z,33.10
2018-07-08T15:32:06.495Z,32.10
2018-07-08T15:34:33.619Z,31.30
2018-07-08T15:37:00.499Z,30.60
2018-07-08T15:39:27.428Z,29.90
2018-07-08T15:41:54.310Z,29.20
2018-07-08T15:44:21.315Z,28.60
2018-07-08T15:46:48.204Z,28.30
2018-07-08T15:49:15.104Z,27.90
2018-07-08T15:51:41.985Z,27.50
2018-07-08T15:54:08.897Z,27.30
2018-07-08T15:56:36.020Z,27.20
2018-07-08T15:59:02.915Z,27.00
2018-07-08T16:01:29.798Z,27.00
2018-07-08T16:03:56.707Z,27.30
2018-07-08T16:06:23.588Z,27.90
2018-07-08T16:08:50.468Z,28.00
2018-07-08T16:11:17.363Z,28.20
2018-07-08T16:16:11.131Z,28.90
2018-07-08T16:18:38.369Z,29.30
2018-07-08T16:21:05.183Z,29.40
2018-07-08T16:23:32.231Z,29.30
2018-07-08T16:25:59.235Z,29.10
2018-07-08T16:28:26.131Z,28.70
2018-07-08T16:30:53.091Z,27.90
2018-07-08T16:33:19.963Z,27.10
2018-07-08T16:35:51.223Z,26.80
2018-07-08T16:38:18.133Z,26.50
2018-07-08T16:40:45.031Z,26.20
2018-07-08T16:43:12.304Z,25.90
2018-07-08T16:45:39.223Z,25.70
2018-07-08T16:48:06.411Z,25.60
2018-07-08T16:50:33.312Z,25.50
2018-07-08T16:53:00.193Z,25.50
2018-07-08T16:55:27.107Z,25.50
2018-07-08T16:57:53.996Z,25.50
2018-07-08T17:00:20.898Z,25.40
2018-07-08T17:02:47.859Z,25.50
2018-07-08T17:05:14.758Z,25.50
2018-07-08T17:07:41.637Z,25.30
2018-07-08T17:10:08.509Z,25.20
2018-07-08T17:12:35.407Z,25.10
2018-07-08T17:15:02.287Z,25.10
2018-07-08T17:17:29.436Z,25.10
2018-07-08T17:19:56.319Z,25.10
2018-07-08T17:22:23.227Z,25.10
2018-07-08T17:24:50.118Z,24.80
2018-07-08T17:27:17.028Z,24.70
2018-07-08T17:29:43.919Z,24.40
2018-07-08T17:32:10.844Z,24.20
2018-07-08T17:34:37.722Z,24.00
2018-07-08T17:37:04.612Z,23.90
2018-07-08T17:39:31.549Z,23.80
2018-07-08T17:41:58.739Z,23.80
2018-07-08T17:44:25.613Z,23.60
2018-07-08T17:46:52.895Z,23.50
2018-07-08T17:49:19.775Z,23.50
2018-07-08T17:51:46.668Z,23.50
2018-07-08T17:54:13.547Z,23.40
2018-07-08T17:56:40.443Z,23.40
2018-07-08T17:59:07.729Z,23.40
2018-07-08T18:01:34.640Z,23.40
2018-07-08T18:04:01.514Z,23.40
2018-07-08T18:06:28.567Z,23.30
2018-07-08T18:08:55.482Z,23.30
2018-07-08T18:11:22.356Z,23.20
2018-07-08T18:13:49.248Z,23.10
2018-07-08T18:16:16.148Z,23.10
2018-07-08T18:18:43.020Z,23.00
2018-07-08T18:21:09.920Z,23.00
2018-07-08T18:23:36.802Z,22.90
2018-07-08T18:26:03.824Z,22.80
2018-07-08T18:28:30.695Z,22.80
2018-07-08T18:30:57.599Z,22.70
2018-07-08T18:33:24.541Z,22.70
2018-07-08T18:35:51.403Z,22.60
2018-07-08T18:38:18.299Z,22.50
2018-07-08T18:40:45.200Z,22.40
2018-07-08T18:43:12.087Z,22.40
2018-07-08T18:45:38.961Z,22.30
2018-07-08T18:48:05.854Z,22.20
2018-07-08T18:50:32.866Z,22.10
2018-07-08T18:53:00.061Z,22.00
2018-07-08T18:55:26.935Z,21.90
2018-07-08T18:57:53.833Z,21.80
2018-07-08T19:00:20.711Z,21.70
2018-07-08T19:02:47.648Z,21.60
2018-07-08T19:05:14.768Z,21.50
2018-07-08T19:07:41.695Z,21.40
2018-07-08T19:10:08.739Z,21.30
2018-07-08T19:12:35.721Z,21.20
2018-07-08T19:15:02.568Z,21.10
2018-07-08T19:17:29.476Z,21.10
2018-07-08T19:19:56.375Z,21.00
2018-07-08T19:22:23.249Z,20.80
2018-07-08T19:24:50.175Z,20.80
2018-07-08T19:27:17.051Z,20.70
2018-07-08T19:29:43.976Z,20.60
2018-07-08T19:32:10.860Z,20.50
2018-07-08T19:34:37.764Z,20.40
2018-07-08T19:37:04.671Z,20.30
2018-07-08T19:39:31.584Z,20.20
2018-07-08T19:41:58.455Z,20.10
2018-07-08T19:44:25.667Z,20.00
2018-07-08T19:46:52.556Z,19.80
2018-07-08T19:49:19.472Z,19.70
2018-07-08T19:51:46.356Z,19.60
2018-07-08T19:54:13.259Z,19.50
2018-07-08T19:56:40.140Z,19.50
2018-07-08T19:59:07.340Z,19.40
2018-07-08T20:01:34.495Z,19.30
2018-07-08T20:04:01.400Z,19.20
2018-07-08T20:06:28.276Z,19.10
2018-07-08T20:08:55.208Z,19.10
2018-07-08T20:11:22.290Z,19.10
2018-07-08T20:13:49.147Z,19.00
2018-07-08T20:16:16.025Z,19.00
2018-07-08T20:18:42.927Z,19.00
2018-07-08T20:21:09.843Z,19.00
2018-07-08T20:23:36.931Z,19.00
2018-07-08T20:26:03.830Z,19.00
2018-07-08T20:28:30.755Z,19.00
2018-07-08T20:30:57.652Z,19.10
2018-07-08T20:33:24.527Z,19.00
2018-07-08T20:35:51.490Z,19.00
2018-07-08T20:38:18.377Z,19.00
2018-07-08T20:40:45.255Z,19.00
2018-07-08T20:43:12.211Z,19.00
2018-07-08T20:45:39.091Z,19.00
2018-07-08T20:48:06.031Z,18.90
2018-07-08T20:50:32.924Z,19.00
2018-07-08T20:53:00.171Z,18.90
2018-07-08T20:55:27.066Z,18.90
2018-07-08T20:57:53.939Z,18.90
2018-07-08T21:00:20.828Z,18.90
2018-07-08T21:02:47.693Z,18.90
2018-07-08T21:05:14.611Z,18.90
2018-07-08T21:07:41.816Z,18.80
2018-07-08T21:10:08.801Z,18.80
2018-07-08T21:12:35.674Z,18.80
2018-07-08T21:17:29.974Z,18.80
2018-07-08T21:19:57.029Z,18.80
2018-07-08T21:22:23.906Z,18.80
2018-07-08T21:24:50.825Z,18.70
2018-07-08T21:27:17.715Z,18.60
2018-07-08T21:29:44.637Z,18.70
2018-07-08T21:32:11.517Z,18.60
2018-07-08T21:34:38.420Z,18.60
2018-07-08T21:37:05.293Z,18.50
2018-07-08T21:39:32.435Z,18.50
2018-07-08T21:41:59.312Z,18.50
2018-07-08T21:44:26.511Z,18.50
2018-07-08T21:46:53.407Z,18.40
2018-07-08T21:49:20.324Z,18.40
2018-07-08T21:51:47.199Z,18.40
2018-07-08T21:54:14.076Z,18.40
2018-07-08T21:56:40.975Z,18.40
2018-07-08T21:59:08.124Z,18.40
2018-07-08T22:01:40.860Z,18.30
2018-07-08T22:04:07.735Z,18.30
2018-07-08T22:06:34.983Z,18.30
2018-07-08T22:09:01.864Z,18.20
2018-07-08T22:11:28.764Z,18.20
2018-07-08T22:13:55.644Z,18.20
2018-07-08T22:16:22.548Z,18.10
2018-07-08T22:18:49.425Z,18.00
2018-07-08T22:21:16.328Z,18.00
2018-07-08T22:23:43.207Z,18.00
2018-07-08T22:26:10.112Z,17.90
2018-07-08T22:28:37.523Z,17.90
2018-07-08T22:31:04.440Z,17.80
2018-07-08T22:33:31.316Z,17.80
2018-07-08T22:35:58.225Z,17.80
2018-07-08T22:38:25.107Z,17.70
2018-07-08T22:40:52.027Z,17.70
2018-07-08T22:43:18.902Z,17.60
2018-07-08T22:45:45.775Z,17.60
2018-07-08T22:48:12.674Z,17.60
2018-07-08T22:50:39.544Z,17.60
2018-07-08T22:53:06.743Z,17.60
2018-07-08T22:55:33.620Z,17.60
2018-07-08T22:58:00.604Z,17.50
2018-07-08T23:00:33.287Z,17.50
2018-07-08T23:04:05.611Z,17.40
2018-07-08T23:06:32.927Z,17.40
2018-07-08T23:08:59.799Z,17.40
2018-07-08T23:11:27.387Z,17.30
2018-07-08T23:13:55.232Z,17.30
2018-07-08T23:16:22.720Z,17.30
2018-07-08T23:18:49.727Z,17.30
2018-07-08T23:21:16.653Z,17.20
2018-07-08T23:23:43.541Z,17.20
2018-07-08T23:26:10.443Z,17.20
2018-07-08T23:28:37.718Z,17.20
2018-07-08T23:31:05.203Z,17.10
2018-07-08T23:33:32.084Z,17.10
2018-07-08T23:36:00.083Z,17.00
2018-07-08T23:38:27.139Z,17.00
2018-07-08T23:40:54.311Z,17.00
2018-07-08T23:43:21.199Z,16.90
2018-07-08T23:45:48.263Z,16.90
2018-07-08T23:48:15.144Z,16.90
2018-07-08T23:50:42.011Z,16.80
2018-07-08T23:53:08.899Z,16.80
2018-07-08T23:55:35.793Z,16.70
2018-07-08T23:58:02.691Z,16.70
